createdAt,value
2018-07-27T11:31:30.876Z,26.84
2018-07-27T11:32:30.842Z,25.83
2018-07-27T11:33:30.878Z,24.95
2018-07-27T11:34:30.822Z,24.63
2018-07-27T11:35:30.809Z,22.69
2018-07-27T11:36:30.839Z,24.03
2018-07-27T11:37:30.867Z,23.33
2018-07-27T11:38:30.787Z,21.09
2018-07-27T11:39:30.810Z,21.66
2018-07-27T11:40:30.766Z,21.06
2018-07-27T11:41:30.830Z,22.01
2018-07-27T11:42:30.792Z,21.23
2018-07-27T11:43:30.736Z,19.77
2018-07-27T11:44:30.758Z,19.95
2018-07-27T11:45:30.775Z,21.11
2018-07-27T11:46:30.711Z,19.76
2018-07-27T11:47:30.711Z,19.18
2018-07-27T11:48:30.753Z,18.51
2018-07-27T11:49:30.712Z,19.76
2018-07-27T11:50:30.711Z,20.05
2018-07-27T11:51:30.726Z,19.74
2018-07-27T11:52:30.702Z,20.10
2018-07-27T11:53:30.650Z,20.00
2018-07-27T11:54:30.642Z,19.80
2018-07-27T11:55:30.662Z,18.66
2018-07-27T11:56:30.630Z,19.82
2018-07-27T11:57:30.690Z,19.53
2018-07-27T11:58:30.649Z,20.12
2018-07-27T11:59:30.649Z,20.29
2018-07-27T12:00:30.689Z,19.64
2018-07-27T12:01:30.602Z,20.51
2018-07-27T12:02:30.585Z,19.67
2018-07-27T12:03:30.627Z,18.77
2018-07-27T12:04:30.564Z,19.71
2018-07-27T12:05:30.558Z,19.13
2018-07-27T12:06:31.364Z,18.96
2018-07-27T12:07:30.544Z,18.29
2018-07-27T12:08:30.534Z,18.29
2018-07-27T12:09:30.589Z,18.09
2018-07-27T12:10:30.519Z,17.43
2018-07-27T12:11:30.518Z,18.27
2018-07-27T12:12:30.603Z,17.31
2018-07-27T12:13:30.503Z,18.37
2018-07-27T12:14:30.640Z,18.35
2018-07-27T12:15:30.484Z,17.96
2018-07-27T12:16:30.532Z,17.77
2018-07-27T12:17:30.624Z,18.47
2018-07-27T12:18:30.461Z,18.49
2018-07-27T12:19:30.454Z,17.82
2018-07-27T12:20:30.568Z,16.77
2018-07-27T12:21:30.551Z,19.56
2018-07-27T12:22:30.458Z,18.59
2018-07-27T12:23:30.449Z,18.11
2018-07-27T12:24:30.417Z,18.19
2018-07-27T12:25:30.413Z,18.96
2018-07-27T12:26:30.404Z,18.19
2018-07-27T12:27:30.427Z,18.37
2018-07-27T12:28:30.406Z,18.65
2018-07-27T12:29:30.384Z,17.02
2018-07-27T12:30:30.374Z,17.68
2018-07-27T12:31:30.370Z,17.39
2018-07-27T12:32:30.468Z,17.29
2018-07-27T12:33:30.354Z,17.11
2018-07-27T12:34:30.344Z,17.50
2018-07-27T12:35:30.366Z,18.30
2018-07-27T12:36:30.339Z,18.21
2018-07-27T12:37:30.329Z,18.20
2018-07-27T12:38:30.374Z,18.20
2018-07-27T12:39:30.305Z,18.48
2018-07-27T12:40:30.300Z,18.29
2018-07-27T12:41:30.301Z,19.55
2018-07-27T12:42:30.282Z,17.43
2018-07-27T12:43:30.326Z,16.57
2018-07-27T12:44:30.303Z,19.26
2018-07-27T12:45:30.257Z,17.33
2018-07-27T12:46:30.295Z,18.29
2018-07-27T12:47:30.240Z,16.29
2018-07-27T12:48:30.235Z,17.67
2018-07-27T12:49:30.278Z,18.54
2018-07-27T12:50:30.215Z,20.08
2018-07-27T12:51:30.205Z,19.48
2018-07-27T12:52:30.198Z,18.32
2018-07-27T12:53:30.189Z,17.83
2018-07-27T12:54:30.218Z,18.23
2018-07-27T12:55:30.172Z,18.44
2018-07-27T12:56:30.164Z,18.08
2018-07-27T12:57:30.168Z,19.05
2018-07-27T12:58:30.151Z,18.76
2018-07-27T12:59:30.230Z,21.58
2018-07-27T13:00:30.619Z,20.73
2018-07-27T13:01:30.117Z,23.63
2018-07-27T13:02:30.140Z,22.59
2018-07-27T13:03:30.098Z,20.19
2018-07-27T13:04:30.090Z,20.19
2018-07-27T13:05:30.192Z,21.15
2018-07-27T13:06:30.070Z,21.62
2018-07-27T13:07:30.061Z,24.44
2018-07-27T13:08:30.060Z,23.10
2018-07-27T13:09:30.056Z,22.53
2018-07-27T13:10:30.292Z,20.59
2018-07-27T13:11:30.020Z,21.77
2018-07-27T13:12:30.044Z,24.58
2018-07-27T13:13:30.013Z,24.29
2018-07-27T13:14:29.990Z,24.98
2018-07-27T13:15:29.980Z,25.09
2018-07-27T13:16:30.019Z,21.69
2018-07-27T13:17:29.965Z,21.98
2018-07-27T13:18:29.967Z,21.79
2018-07-27T13:19:29.968Z,21.11
2018-07-27T13:20:29.932Z,20.15
2018-07-27T13:21:29.922Z,23.06
2018-07-27T13:22:30.068Z,21.41
2018-07-27T13:23:29.905Z,21.70
2018-07-27T13:25:29.949Z,21.89
2018-07-27T13:26:29.914Z,21.13
2018-07-27T13:27:29.886Z,20.94
2018-07-27T13:28:29.853Z,20.74
2018-07-27T13:29:29.842Z,22.68
2018-07-27T13:30:29.868Z,21.51
2018-07-27T13:31:29.876Z,21.51
2018-07-27T13:32:29.836Z,23.07
2018-07-27T13:33:29.812Z,23.94
2018-07-27T13:34:29.798Z,20.55
2018-07-27T13:35:29.784Z,23.36
2018-07-27T13:36:29.790Z,23.07
2018-07-27T13:38:29.773Z,25.51
2018-07-27T13:39:29.874Z,22.20
2018-07-27T13:40:29.731Z,21.62
2018-07-27T13:41:29.735Z,20.27
2018-07-27T13:42:29.748Z,22.89
2018-07-27T13:43:29.703Z,22.41
2018-07-27T13:44:29.730Z,25.32
2018-07-27T13:45:29.684Z,23.39
2018-07-27T13:46:29.691Z,22.72
2018-07-27T13:47:29.691Z,20.39
2018-07-27T13:48:29.655Z,22.02
2018-07-27T13:49:29.673Z,21.65
2018-07-27T13:50:29.637Z,22.72
2018-07-27T13:51:29.625Z,23.69
2018-07-27T13:52:29.620Z,24.57
2018-07-27T13:53:29.749Z,21.84
2018-07-27T13:54:29.656Z,25.63
2018-07-27T13:55:29.612Z,23.49
2018-07-27T13:56:29.579Z,21.47
2018-07-27T13:57:29.609Z,21.55
2018-07-27T13:58:29.580Z,23.41
2018-07-27T13:59:29.552Z,22.72
2018-07-27T14:00:29.606Z,22.92
2018-07-27T14:01:29.540Z,21.96
2018-07-27T14:02:29.508Z,22.25
2018-07-27T14:03:29.506Z,22.54
2018-07-27T14:04:29.666Z,22.64
2018-07-27T14:05:29.487Z,22.16
2018-07-27T14:06:29.493Z,22.16
2018-07-27T14:07:29.507Z,21.67
2018-07-27T14:08:29.448Z,22.83
2018-07-27T14:09:29.494Z,21.58
2018-07-27T14:10:29.452Z,22.16
2018-07-27T14:11:29.457Z,21.58
2018-07-27T14:12:29.408Z,22.16
2018-07-27T14:13:29.444Z,21.78
2018-07-27T14:14:29.428Z,23.14
2018-07-27T14:15:29.377Z,22.36
2018-07-27T14:16:29.449Z,23.04
2018-07-27T14:17:29.409Z,22.36
2018-07-27T14:21:04.937Z,24.50
2018-07-27T14:22:04.910Z,22.85
2018-07-27T14:23:04.909Z,20.51
2018-07-27T14:24:04.885Z,21.88
2018-07-27T14:25:04.898Z,21.78
2018-07-27T14:26:04.895Z,22.75
2018-07-27T14:27:04.861Z,22.16
2018-07-27T14:28:04.849Z,21.48
2018-07-27T14:29:04.844Z,22.07
2018-07-27T14:30:04.855Z,22.16
2018-07-27T14:31:04.914Z,21.30
2018-07-27T14:32:04.809Z,22.16
2018-07-27T14:33:04.795Z,23.91
2018-07-27T14:34:04.788Z,24.50
2018-07-27T14:35:04.955Z,23.63
2018-07-27T14:36:04.790Z,22.86
2018-07-27T14:37:04.865Z,22.66
2018-07-27T14:38:04.744Z,23.35
2018-07-27T14:39:04.739Z,22.17
2018-07-27T14:40:04.731Z,23.25
2018-07-27T14:41:04.742Z,24.41
2018-07-27T14:42:04.734Z,23.45
2018-07-27T14:43:04.724Z,23.35
2018-07-27T14:44:04.699Z,22.77
2018-07-27T14:45:04.737Z,23.84
2018-07-27T14:46:04.722Z,23.44
2018-07-27T14:47:04.655Z,21.59
2018-07-27T14:48:04.659Z,23.54
2018-07-27T14:49:04.679Z,22.86
2018-07-27T14:50:04.628Z,24.61
2018-07-27T14:51:04.647Z,22.87
2018-07-27T14:52:04.621Z,24.41
2018-07-27T14:53:04.600Z,23.63
2018-07-27T14:54:04.610Z,23.63
2018-07-27T14:55:04.587Z,24.32
2018-07-27T14:56:04.562Z,23.15
2018-07-27T14:57:04.587Z,24.02
2018-07-27T14:58:04.546Z,23.05
2018-07-27T14:59:04.552Z,22.77
2018-07-27T15:00:04.521Z,21.31
2018-07-27T15:01:04.543Z,24.22
2018-07-27T15:02:04.540Z,22.37
2018-07-27T15:03:04.490Z,23.44
2018-07-27T15:04:04.480Z,23.25
2018-07-27T15:05:04.493Z,21.50
2018-07-27T15:06:04.464Z,21.40
2018-07-27T15:07:04.554Z,21.98
2018-07-27T15:08:04.440Z,23.44
2018-07-27T15:09:04.456Z,22.47
2018-07-27T15:10:04.426Z,22.96
2018-07-27T15:11:04.410Z,23.83
2018-07-27T15:12:04.405Z,23.05
2018-07-27T15:13:04.440Z,23.05
2018-07-27T15:14:04.382Z,21.79
2018-07-27T15:15:04.369Z,22.08
2018-07-27T15:16:04.360Z,21.20
2018-07-27T15:17:04.359Z,22.37
2018-07-27T15:18:04.377Z,21.41
2018-07-27T15:19:04.423Z,21.80
2018-07-27T15:20:04.342Z,22.38
2018-07-27T15:21:04.309Z,23.85
2018-07-27T15:22:04.322Z,22.20
2018-07-27T15:23:04.312Z,24.63
2018-07-27T15:24:04.306Z,23.95
2018-07-27T15:25:04.270Z,22.87
2018-07-27T15:26:04.272Z,21.42
2018-07-27T15:27:04.246Z,22.39
2018-07-27T15:28:04.249Z,23.07
2018-07-27T15:29:04.294Z,22.87
2018-07-27T15:30:04.215Z,24.72
2018-07-27T15:31:04.267Z,22.48
2018-07-27T15:32:04.250Z,23.85
2018-07-27T15:33:04.186Z,24.15
2018-07-27T15:34:04.209Z,22.39
2018-07-27T15:35:04.183Z,23.66
2018-07-27T15:36:04.158Z,23.66
2018-07-27T15:37:04.145Z,23.67
2018-07-27T15:38:04.146Z,24.44
2018-07-27T15:39:04.125Z,22.89
2018-07-27T15:40:04.282Z,22.69
2018-07-27T15:41:04.111Z,21.62
2018-07-27T15:42:04.130Z,23.28
2018-07-27T15:43:04.086Z,22.31
2018-07-27T15:44:04.138Z,21.62
2018-07-27T15:45:04.111Z,20.47
2018-07-27T15:46:04.082Z,23.29
2018-07-27T15:47:04.040Z,21.53
2018-07-27T15:48:04.031Z,22.51
2018-07-27T15:49:04.023Z,21.62
2018-07-27T15:50:04.220Z,20.66
2018-07-27T15:51:04.002Z,21.64
2018-07-27T15:52:03.993Z,21.04
2018-07-27T15:53:03.985Z,20.37
2018-07-27T15:54:03.977Z,21.15
2018-07-27T15:55:03.971Z,22.80
2018-07-27T15:56:04.024Z,21.44
2018-07-27T15:57:03.942Z,21.72
2018-07-27T15:58:03.933Z,20.26
2018-07-27T15:59:03.921Z,24.45
2018-07-27T16:00:03.917Z,23.58
2018-07-27T16:01:03.930Z,21.92
2018-07-27T16:02:04.032Z,23.39
2018-07-27T16:03:03.921Z,21.64
2018-07-27T16:04:03.882Z,22.61
2018-07-27T16:05:03.887Z,22.80
2018-07-27T16:06:03.875Z,21.55
2018-07-27T16:07:03.854Z,22.71
2018-07-27T16:08:03.833Z,23.50
2018-07-27T16:09:03.844Z,23.00
2018-07-27T16:10:03.815Z,22.80
2018-07-27T16:11:03.895Z,22.12
2018-07-27T16:12:03.789Z,23.10
2018-07-27T16:13:03.788Z,21.34
2018-07-27T16:14:03.855Z,21.84
2018-07-27T16:15:03.761Z,21.94
2018-07-27T16:16:03.759Z,21.84
2018-07-27T16:17:03.819Z,22.52
2018-07-27T16:18:03.746Z,22.61
2018-07-27T16:19:03.734Z,24.18
2018-07-27T16:20:03.707Z,23.30
2018-07-27T16:21:03.712Z,21.84
2018-07-27T16:22:03.773Z,21.66
2018-07-27T16:23:03.678Z,22.92
2018-07-27T16:24:03.986Z,23.40
2018-07-27T16:25:03.667Z,24.39
2018-07-27T16:26:03.745Z,22.34
2018-07-27T16:27:03.692Z,22.34
2018-07-27T16:28:03.696Z,22.53
2018-07-27T16:29:03.625Z,22.53
2018-07-27T16:30:03.612Z,23.22
2018-07-27T16:31:03.642Z,22.44
2018-07-27T16:32:03.627Z,24.00
2018-07-27T16:33:03.586Z,23.12
2018-07-27T16:34:03.574Z,23.61
2018-07-27T16:35:03.676Z,22.63
2018-07-27T16:36:03.568Z,24.21
2018-07-27T16:37:03.531Z,23.03
2018-07-27T16:38:03.766Z,23.03
2018-07-27T16:39:03.522Z,21.96
2018-07-27T16:40:03.555Z,22.45
2018-07-27T16:41:03.541Z,23.33
2018-07-27T16:42:03.527Z,24.30
2018-07-27T16:43:03.532Z,23.72
2018-07-27T16:44:03.459Z,24.69
2018-07-27T16:45:03.477Z,23.52
2018-07-27T16:46:03.480Z,23.24
2018-07-27T16:47:03.459Z,23.73
2018-07-27T16:48:03.432Z,22.46
2018-07-27T16:49:03.475Z,23.44
2018-07-27T16:50:03.401Z,24.80
2018-07-27T16:51:03.412Z,23.44
2018-07-27T16:52:03.404Z,23.44
2018-07-27T16:53:03.401Z,23.63
2018-07-27T16:54:03.445Z,24.02
2018-07-27T16:55:03.353Z,23.63
2018-07-27T16:56:03.340Z,23.44
2018-07-27T16:57:03.360Z,22.95
2018-07-27T16:58:03.322Z,23.73
2018-07-27T16:59:03.319Z,23.73
2018-07-27T17:00:03.363Z,25.29
2018-07-27T17:01:03.314Z,25.50
2018-07-27T17:02:03.281Z,22.56
2018-07-27T17:03:03.293Z,22.47
2018-07-27T17:04:03.260Z,24.71
2018-07-27T17:05:03.253Z,25.21
2018-07-27T17:06:03.342Z,23.74
2018-07-27T17:07:03.314Z,25.21
2018-07-27T17:08:03.251Z,24.22
2018-07-27T17:09:03.218Z,23.64
2018-07-27T17:10:03.232Z,23.44
2018-07-27T17:11:03.215Z,23.44
2018-07-27T17:12:03.188Z,23.64
2018-07-27T17:13:03.269Z,23.64
2018-07-27T17:14:03.169Z,24.52
2018-07-27T17:15:03.160Z,22.96
2018-07-27T17:16:03.139Z,23.85
2018-07-27T17:17:03.143Z,22.96
2018-07-27T17:18:03.153Z,23.05
2018-07-27T17:19:03.135Z,23.35
2018-07-27T17:20:03.180Z,23.15
2018-07-27T17:21:03.095Z,23.64
2018-07-27T17:22:03.093Z,22.86
2018-07-27T17:23:03.093Z,24.22
2018-07-27T17:24:03.136Z,24.32
2018-07-27T17:25:03.144Z,25.99
2018-07-27T17:26:03.041Z,25.31
2018-07-27T17:27:03.037Z,25.51
2018-07-27T17:28:03.041Z,25.02
2018-07-27T17:29:03.037Z,25.02
2018-07-27T17:30:03.053Z,25.51
2018-07-27T17:31:03.149Z,25.12
2018-07-27T17:32:02.976Z,24.73
2018-07-27T17:33:02.966Z,25.42
2018-07-27T17:34:02.982Z,28.34
2018-07-27T17:35:03.054Z,28.54
2018-07-27T17:36:02.941Z,27.56
2018-07-27T17:37:02.950Z,28.64
2018-07-27T17:38:02.917Z,27.97
2018-07-27T17:39:02.909Z,27.87
2018-07-27T17:40:02.952Z,28.94
2018-07-27T17:41:02.886Z,28.36
2018-07-27T17:42:02.890Z,25.72
2018-07-27T17:43:02.897Z,26.40
2018-07-27T17:44:02.922Z,28.06
2018-07-27T17:45:02.865Z,28.08
2018-07-27T17:46:02.867Z,29.84
2018-07-27T17:47:02.856Z,27.10
2018-07-27T17:48:02.868Z,26.42
2018-07-27T17:49:02.809Z,28.57
2018-07-27T17:50:02.797Z,30.23
2018-07-27T17:51:02.944Z,30.04
2018-07-27T17:52:02.775Z,28.28
2018-07-27T17:53:02.765Z,29.46
2018-07-27T17:54:02.759Z,28.99
2018-07-27T17:55:02.742Z,29.48
2018-07-27T17:56:02.760Z,31.83
2018-07-27T17:57:02.786Z,30.75
2018-07-27T17:58:02.711Z,33.89
2018-07-27T17:59:02.717Z,29.97
2018-07-27T18:00:02.712Z,33.39
2018-07-27T18:01:02.715Z,33.22
2018-07-27T18:02:02.699Z,29.88
2018-07-27T18:03:02.738Z,29.10
2018-07-27T18:04:02.678Z,27.83
2018-07-27T18:05:02.642Z,30.47
2018-07-27T18:06:02.630Z,28.71
2018-07-27T18:07:02.763Z,28.71
2018-07-27T18:08:02.662Z,31.06
2018-07-27T18:09:02.639Z,28.61
2018-07-27T18:10:02.591Z,30.96
2018-07-27T18:11:02.579Z,32.45
2018-07-27T18:12:02.599Z,31.27
2018-07-27T18:13:02.562Z,32.54
2018-07-27T18:14:02.553Z,30.58
2018-07-27T18:15:02.563Z,29.11
2018-07-27T18:16:02.530Z,30.98
2018-07-27T18:17:02.521Z,29.41
2018-07-27T18:18:02.536Z,28.25
2018-07-27T18:19:02.530Z,28.34
2018-07-27T18:20:02.503Z,30.50
2018-07-27T18:21:02.521Z,29.13
2018-07-27T18:22:02.466Z,31.19
2018-07-27T18:23:02.481Z,29.62
2018-07-27T18:24:02.447Z,31.87
2018-07-27T18:25:02.446Z,29.62
2018-07-27T18:26:02.427Z,30.99
2018-07-27T18:27:02.500Z,30.40
2018-07-27T18:28:02.433Z,31.10
2018-07-27T18:29:02.393Z,30.90
2018-07-27T18:30:02.420Z,29.83
2018-07-27T18:31:02.375Z,30.30
2018-07-27T18:32:02.363Z,31.89
2018-07-27T18:33:02.417Z,30.32
2018-07-27T18:34:02.426Z,30.62
2018-07-27T18:35:02.359Z,29.24
2018-07-27T18:36:02.322Z,31.01
2018-07-27T18:37:02.310Z,31.30
2018-07-27T18:38:02.358Z,29.82
2018-07-27T18:39:02.296Z,32.97
2018-07-27T18:40:02.335Z,31.50
2018-07-27T18:41:02.275Z,32.09
2018-07-27T18:42:02.261Z,31.70
2018-07-27T18:43:02.254Z,31.40
2018-07-27T18:44:02.266Z,30.22
2018-07-27T18:45:02.242Z,30.22
2018-07-27T18:46:02.257Z,29.63
2018-07-27T18:47:09.746Z,29.93
2018-07-27T18:48:02.199Z,30.43
2018-07-27T18:49:02.188Z,31.12
2018-07-27T18:50:02.297Z,32.59
2018-07-27T18:51:02.173Z,32.69
2018-07-27T18:52:02.160Z,32.01
2018-07-27T18:53:02.223Z,32.71
2018-07-27T18:54:02.192Z,32.21
2018-07-27T18:55:02.169Z,31.04
2018-07-27T18:56:02.114Z,32.12
2018-07-27T18:57:02.107Z,34.39
2018-07-27T18:58:02.135Z,34.10
2018-07-27T18:59:02.097Z,35.77
2018-07-27T19:00:02.114Z,34.01
2018-07-27T19:01:02.136Z,34.11
2018-07-27T19:02:02.054Z,36.38
2018-07-27T19:03:02.087Z,35.30
2018-07-27T19:04:02.031Z,35.31
2018-07-27T19:05:02.049Z,35.31
2018-07-27T19:06:02.037Z,35.61
2018-07-27T19:07:02.011Z,34.84
2018-07-27T19:08:01.994Z,35.43
2018-07-27T19:09:01.996Z,35.92
2018-07-27T19:10:02.013Z,35.63
2018-07-27T19:11:01.959Z,36.23
2018-07-27T19:12:01.975Z,36.13
2018-07-27T19:13:01.942Z,36.25
2018-07-27T19:14:02.010Z,36.74
2018-07-27T19:15:01.942Z,38.32
2018-07-27T19:16:02.069Z,36.96
2018-07-27T19:17:01.897Z,37.74
2018-07-27T19:18:01.896Z,37.65
2018-07-27T19:19:01.874Z,37.87
2018-07-27T19:20:01.908Z,38.26
2018-07-27T19:21:01.856Z,41.41
2018-07-27T19:22:01.851Z,40.23
2018-07-27T19:23:01.836Z,40.35
2018-07-27T19:24:01.928Z,40.15
2018-07-27T19:25:01.853Z,39.95
2018-07-27T19:26:01.820Z,38.49
2018-07-27T19:27:01.791Z,38.79
2018-07-27T19:28:01.785Z,39.09
2018-07-27T19:29:01.773Z,39.89
2018-07-27T19:30:01.829Z,39.30
2018-07-27T19:31:01.749Z,40.39
2018-07-27T19:32:01.740Z,40.69
2018-07-27T19:33:01.727Z,41.08
2018-07-27T19:34:01.717Z,40.90
2018-07-27T19:35:01.767Z,40.61
2018-07-27T19:36:01.764Z,41.69
2018-07-27T19:37:01.686Z,41.12
2018-07-27T19:38:01.679Z,42.40
2018-07-27T19:39:01.667Z,41.71
2018-07-27T19:40:01.680Z,41.41
2018-07-27T19:41:01.658Z,41.14
2018-07-27T19:42:01.724Z,43.21
2018-07-27T19:43:01.623Z,45.31
2018-07-27T19:44:01.708Z,43.61
2018-07-27T19:45:01.632Z,43.93
2018-07-27T19:46:01.592Z,42.64
2018-07-27T19:47:01.583Z,43.24
2018-07-27T19:48:01.616Z,43.35
2018-07-27T19:49:01.606Z,43.35
2018-07-27T19:50:01.552Z,43.18
2018-07-27T19:51:01.579Z,43.65
2018-07-27T19:52:01.530Z,42.88
2018-07-27T19:53:01.531Z,43.18
2018-07-27T19:54:01.553Z,42.98
2018-07-27T19:55:01.505Z,44.96
2018-07-27T19:56:01.512Z,46.97
2018-07-27T19:57:01.493Z,44.49
2018-07-27T19:58:01.470Z,44.98
2018-07-27T19:59:01.481Z,44.49
2018-07-27T20:00:01.450Z,43.99
2018-07-27T20:01:01.630Z,43.82
2018-07-27T20:02:01.528Z,43.82
2018-07-27T20:03:02.693Z,43.52
2018-07-27T20:04:01.405Z,44.60
2018-07-27T20:05:01.401Z,44.81
2018-07-27T20:06:01.511Z,45.42
2018-07-27T20:07:01.372Z,46.61
2018-07-27T20:08:01.386Z,46.02
2018-07-27T20:09:01.349Z,48.30
2018-07-27T20:10:01.339Z,47.21
2018-07-27T20:11:01.391Z,48.62
2018-07-27T20:12:01.344Z,49.91
2018-07-27T20:13:01.330Z,49.81
2018-07-27T20:14:01.296Z,46.64
2018-07-27T20:15:01.285Z,45.56
2018-07-27T20:16:01.325Z,47.16
2018-07-27T20:17:01.266Z,46.46
2018-07-27T20:18:01.253Z,46.06
2018-07-27T20:19:01.253Z,45.96
2018-07-27T20:20:01.241Z,47.95
2018-07-27T20:21:01.249Z,49.74
2018-07-27T20:22:01.241Z,50.85
2018-07-27T20:23:01.272Z,49.36
2018-07-27T20:24:01.190Z,49.07
2018-07-27T20:25:01.178Z,49.26
2018-07-27T20:26:01.193Z,49.56
2018-07-27T20:27:01.157Z,47.08
2018-07-27T20:28:01.151Z,49.36
2018-07-27T20:29:01.167Z,47.47
2018-07-27T20:30:01.126Z,47.38
2018-07-27T20:31:01.139Z,49.19
2018-07-27T20:32:01.106Z,48.10
2018-07-27T20:33:01.094Z,47.70
2018-07-27T20:34:01.104Z,46.80
2018-07-27T20:35:01.124Z,46.70
2018-07-27T20:36:01.087Z,49.78
2018-07-27T20:37:01.170Z,47.99
2018-07-27T20:38:01.042Z,49.19
2018-07-27T20:39:01.030Z,49.19
2018-07-27T20:40:01.019Z,48.10
2018-07-27T20:41:01.056Z,49.38
2018-07-27T20:42:00.997Z,48.19
2018-07-27T20:43:00.991Z,48.89
2018-07-27T20:44:01.037Z,49.38
2018-07-27T20:45:00.986Z,48.19
2018-07-27T20:46:00.987Z,50.38
2018-07-27T20:47:00.999Z,48.49
2018-07-27T20:48:00.934Z,48.29
2018-07-27T20:49:00.937Z,48.49
2018-07-27T20:50:00.914Z,48.49
2018-07-27T20:51:00.927Z,49.98
2018-07-27T20:52:00.897Z,49.71
2018-07-27T20:53:00.894Z,49.71
2018-07-27T20:54:00.871Z,50.18
2018-07-27T20:55:00.864Z,50.10
2018-07-27T20:56:00.877Z,50.68
2018-07-27T20:57:00.848Z,50.28
2018-07-27T20:58:00.880Z,49.88
2018-07-27T20:59:00.837Z,50.08
2018-07-27T21:00:00.836Z,49.78
2018-07-27T21:01:00.858Z,50.28
2018-07-27T21:02:00.814Z,49.19
2018-07-27T21:03:00.775Z,49.98
2018-07-27T21:04:00.813Z,49.78
2018-07-27T21:05:00.764Z,49.49
2018-07-27T21:06:00.798Z,49.98
2018-07-27T21:07:00.733Z,49.19
2018-07-27T21:08:00.736Z,50.08
2018-07-27T21:09:00.717Z,49.19
2018-07-27T21:10:00.718Z,49.19
2018-07-27T21:11:00.694Z,48.79
2018-07-27T21:12:00.741Z,49.78
2018-07-27T21:13:00.682Z,49.78
2018-07-27T21:14:00.660Z,49.38
2018-07-27T21:15:00.649Z,49.98
2018-07-27T21:16:00.649Z,50.20
2018-07-27T21:17:00.788Z,50.58
2018-07-27T21:18:00.647Z,50.60
2018-07-27T21:19:00.618Z,50.70
2018-07-27T21:20:00.598Z,50.70
2018-07-27T21:21:00.587Z,51.00
2018-07-27T21:22:00.645Z,50.70
2018-07-27T21:23:00.565Z,50.20
2018-07-27T21:24:00.559Z,52.29
2018-07-27T21:25:00.578Z,51.89
2018-07-27T21:26:00.533Z,52.39
2018-07-27T21:27:00.576Z,52.09
2018-07-27T21:28:00.511Z,51.40
2018-07-27T21:29:00.501Z,52.12
2018-07-27T21:30:00.491Z,52.72
2018-07-27T21:31:00.555Z,52.72
2018-07-27T21:32:00.827Z,52.91
2018-07-27T21:33:00.479Z,52.81
2018-07-27T21:34:00.448Z,52.51
2018-07-27T21:35:00.438Z,51.62
2018-07-27T21:36:00.434Z,52.24
2018-07-27T21:37:00.639Z,52.14
2018-07-27T21:38:00.417Z,52.04
2018-07-27T21:39:00.408Z,51.75
2018-07-27T21:40:00.393Z,51.95
2018-07-27T21:41:00.450Z,51.84
2018-07-27T21:42:00.405Z,52.97
2018-07-27T21:43:00.514Z,52.57
2018-07-27T21:44:00.342Z,53.66
2018-07-27T21:45:00.334Z,54.16
2018-07-27T21:46:00.423Z,54.75
2018-07-27T21:47:00.337Z,54.66
2018-07-27T21:48:00.298Z,54.58
2018-07-27T21:49:00.289Z,54.68
2018-07-27T21:50:00.276Z,55.88
2018-07-27T21:51:00.316Z,55.68
2018-07-27T21:52:00.337Z,56.08
2018-07-27T21:53:00.252Z,55.58
2018-07-27T21:54:00.255Z,55.78
2018-07-27T21:55:00.227Z,54.79
2018-07-27T21:56:00.268Z,55.28
2018-07-27T21:57:00.378Z,54.98
2018-07-27T21:58:00.249Z,55.88
2018-07-27T21:59:00.181Z,55.38
2018-07-27T22:00:00.217Z,56.18
2018-07-27T22:01:00.163Z,55.01
2018-07-27T22:02:00.179Z,55.91
2018-07-27T22:03:00.164Z,59.06
2018-07-27T22:04:00.162Z,58.20
2018-07-27T22:05:00.123Z,57.00
2018-07-27T22:06:00.107Z,57.60
2018-07-27T22:07:00.118Z,56.63
2018-07-27T22:08:00.132Z,57.03
2018-07-27T22:09:00.075Z,56.43
2018-07-27T22:10:00.067Z,56.23
2018-07-27T22:11:00.053Z,57.00
2018-07-27T22:12:00.116Z,56.51
2018-07-27T22:13:00.036Z,56.21
2018-07-27T22:14:00.146Z,56.21
2018-07-27T22:15:00.012Z,56.01
2018-07-27T22:16:00.113Z,55.91
2018-07-27T22:17:00.038Z,56.60
2018-07-27T22:17:59.979Z,56.60
2018-07-27T22:18:59.976Z,56.77
2018-07-27T22:19:59.956Z,56.70
2018-07-27T22:20:59.944Z,56.30
2018-07-27T22:21:59.959Z,55.91
2018-07-27T22:22:59.991Z,55.91
2018-07-27T22:23:59.913Z,56.51
2018-07-27T22:24:59.904Z,56.01
2018-07-27T22:25:59.900Z,56.81
2018-07-27T22:26:59.983Z,56.81
2018-07-27T22:27:59.871Z,56.30
2018-07-27T22:28:59.860Z,56.93
2018-07-27T22:29:59.935Z,57.23
2018-07-27T22:30:59.838Z,57.33
2018-07-27T22:31:59.942Z,56.63
2018-07-27T22:32:59.879Z,57.23
2018-07-27T22:33:59.805Z,56.63
2018-07-27T22:34:59.795Z,56.93
2018-07-27T22:35:59.783Z,56.93
2018-07-27T22:36:59.803Z,56.66
2018-07-27T22:37:59.886Z,58.36
2018-07-27T22:38:59.859Z,57.15
2018-07-27T22:39:59.744Z,56.56
2018-07-27T22:40:59.731Z,57.15
2018-07-27T22:41:59.771Z,57.26
2018-07-27T22:42:59.713Z,57.06
2018-07-27T22:43:59.703Z,56.56
2018-07-27T22:44:59.727Z,56.96
2018-07-27T22:45:59.691Z,56.76
2018-07-27T22:46:59.693Z,56.16
2018-07-27T22:47:59.658Z,56.26
2018-07-27T22:48:59.654Z,55.26
2018-07-27T22:49:59.635Z,56.26
2018-07-27T22:50:59.630Z,56.43
2018-07-27T22:51:59.681Z,55.54
2018-07-27T22:52:59.612Z,55.93
2018-07-27T22:53:59.604Z,56.03
2018-07-27T22:54:59.620Z,56.13
2018-07-27T22:55:59.603Z,55.63
2018-07-27T22:56:59.589Z,55.93
2018-07-27T22:57:59.573Z,56.33
2018-07-27T22:58:59.541Z,57.03
2018-07-27T22:59:59.530Z,57.03
2018-07-27T23:00:59.565Z,57.93
2018-07-27T23:01:59.550Z,59.19
2018-07-27T23:02:59.497Z,59.39
2018-07-27T23:03:59.491Z,59.59
2018-07-27T23:04:59.494Z,58.59
2018-07-27T23:05:59.498Z,59.30
2018-07-27T23:06:59.480Z,59.39
2018-07-27T23:07:59.450Z,59.79
2018-07-27T23:08:59.451Z,59.09
2018-07-27T23:09:59.422Z,59.89
2018-07-27T23:10:59.449Z,59.79
2018-07-27T23:11:59.489Z,59.19
2018-07-27T23:12:59.406Z,60.39
2018-07-27T23:13:59.381Z,59.69
2018-07-27T23:14:59.418Z,59.62
2018-07-27T23:15:59.360Z,60.29
2018-07-27T23:16:59.374Z,60.59
2018-07-27T23:17:59.346Z,59.59
2018-07-27T23:18:59.350Z,60.62
2018-07-27T23:19:59.318Z,60.49
2018-07-27T23:20:59.307Z,60.79
2018-07-27T23:21:59.319Z,60.49
2018-07-27T23:22:59.285Z,60.62
2018-07-27T23:23:59.274Z,60.72
2018-07-27T23:24:59.304Z,60.32
2018-07-27T23:25:59.257Z,60.32
2018-07-27T23:26:59.272Z,59.52
2018-07-27T23:27:59.287Z,60.29
2018-07-27T23:28:59.221Z,59.79
2018-07-27T23:29:59.210Z,58.89
2018-07-27T23:30:59.244Z,59.79
2018-07-27T23:31:59.258Z,59.79
2018-07-27T23:32:59.195Z,58.80
2018-07-27T23:33:59.171Z,58.80
2018-07-27T23:34:59.158Z,58.80
2018-07-27T23:35:59.148Z,58.70
2018-07-27T23:36:59.161Z,59.09
2018-07-27T23:37:59.158Z,58.80
2018-07-27T23:38:59.114Z,58.80
2018-07-27T23:39:59.106Z,58.89
2018-07-27T23:40:59.092Z,59.89
2018-07-27T23:41:59.106Z,59.39
2018-07-27T23:42:59.078Z,59.49
2018-07-27T23:43:59.077Z,59.49
2018-07-27T23:44:59.057Z,59.30
2018-07-27T23:45:59.048Z,59.69
2018-07-27T23:46:59.098Z,59.89
2018-07-27T23:47:59.066Z,59.30
2018-07-27T23:48:59.017Z,59.89
2018-07-27T23:49:59.029Z,59.99
2018-07-27T23:50:58.988Z,60.39
2018-07-27T23:51:59.041Z,59.92
2018-07-27T23:52:58.965Z,60.42
2018-07-27T23:53:58.979Z,60.72
2018-07-27T23:54:58.945Z,60.72
2018-07-27T23:55:58.939Z,60.42
2018-07-27T23:56:58.952Z,60.42
2018-07-27T23:57:58.911Z,60.72
2018-07-27T23:58:58.931Z,60.22
2018-07-27T23:59:58.927Z,60.42
